createdAt,value
2018-07-24T00:00:09.673Z,68.38
2018-07-24T00:02:38.458Z,69.31
2018-07-24T00:05:07.464Z,69.34
2018-07-24T00:07:36.449Z,69.07
2018-07-24T00:10:05.572Z,69.28
2018-07-24T00:12:34.669Z,69.27
2018-07-24T00:15:04.310Z,69.52
2018-07-24T00:17:33.010Z,69.12
2018-07-24T00:20:01.774Z,68.99
2018-07-24T00:22:30.816Z,69.50
2018-07-24T00:24:59.553Z,70.27
2018-07-24T00:27:28.315Z,70.28
2018-07-24T00:29:57.104Z,70.61
2018-07-24T00:32:26.076Z,71.35
2018-07-24T00:34:54.805Z,71.64
2018-07-24T00:37:23.546Z,71.81
2018-07-24T00:39:52.808Z,72.17
2018-07-24T00:42:21.555Z,72.40
2018-07-24T00:44:50.238Z,72.62
2018-07-24T00:47:19.030Z,72.59
2018-07-24T00:49:47.946Z,72.44
2018-07-24T00:52:16.692Z,72.27
2018-07-24T00:54:45.462Z,72.14
2018-07-24T00:57:14.153Z,72.48
2018-07-24T00:59:42.933Z,72.96
2018-07-24T01:02:11.844Z,72.59
2018-07-24T01:04:40.572Z,72.83
2018-07-24T01:07:09.297Z,73.16
2018-07-24T01:09:38.056Z,73.06
2018-07-24T01:12:06.776Z,74.03
2018-07-24T01:14:35.519Z,74.68
2018-07-24T01:17:04.328Z,74.60
2018-07-24T01:19:33.152Z,74.36
2018-07-24T01:22:01.892Z,74.72
2018-07-24T01:24:30.608Z,74.46
2018-07-24T01:26:59.367Z,74.15
2018-07-24T01:29:28.139Z,73.39
2018-07-24T01:31:56.872Z,72.85
2018-07-24T01:34:25.800Z,72.68
2018-07-24T01:36:54.656Z,72.91
2018-07-24T01:39:23.393Z,73.17
2018-07-24T01:41:52.553Z,73.78
2018-07-24T01:44:21.296Z,74.22
2018-07-24T01:46:50.208Z,74.25
2018-07-24T01:49:18.973Z,74.31
2018-07-24T01:51:47.862Z,73.78
2018-07-24T01:54:16.571Z,73.53
2018-07-24T01:56:45.261Z,73.06
2018-07-24T01:59:14.123Z,73.28
2018-07-24T02:01:43.479Z,73.31
2018-07-24T02:04:12.417Z,73.35
2018-07-24T02:06:41.179Z,73.27
2018-07-24T02:09:10.734Z,73.14
2018-07-24T02:11:39.657Z,73.49
2018-07-24T02:14:08.636Z,73.87
2018-07-24T02:16:37.411Z,74.38
2018-07-24T02:19:06.238Z,74.71
2018-07-24T02:21:34.998Z,74.49
2018-07-24T02:24:04.112Z,74.36
2018-07-24T02:26:32.785Z,74.68
2018-07-24T02:29:01.522Z,75.28
2018-07-24T02:31:30.263Z,75.76
2018-07-24T02:33:58.941Z,75.95
2018-07-24T02:36:27.783Z,75.59
2018-07-24T02:38:57.237Z,75.20
2018-07-24T02:41:25.959Z,75.39
2018-07-24T02:43:54.728Z,75.53
2018-07-24T02:46:23.518Z,75.02
2018-07-24T02:48:52.365Z,75.05
2018-07-24T02:51:21.111Z,75.51
2018-07-24T02:53:49.819Z,75.03
2018-07-24T02:56:18.587Z,75.43
2018-07-24T02:58:47.396Z,75.55
2018-07-24T03:01:16.156Z,75.91
2018-07-24T03:03:44.863Z,75.97
2018-07-24T03:06:13.619Z,76.54
2018-07-24T03:08:42.388Z,76.81
2018-07-24T03:11:11.161Z,76.61
2018-07-24T03:13:39.917Z,76.40
2018-07-24T03:16:08.650Z,76.22
2018-07-24T03:18:37.345Z,76.32
2018-07-24T03:21:06.377Z,76.57
2018-07-24T03:23:35.088Z,76.34
2018-07-24T03:26:03.887Z,77.24
2018-07-24T03:28:32.618Z,77.76
2018-07-24T03:31:01.339Z,77.52
2018-07-24T03:33:30.030Z,77.56
2018-07-24T03:35:58.891Z,77.15
2018-07-24T03:38:27.613Z,77.17
2018-07-24T03:40:56.359Z,77.37
2018-07-24T03:43:25.086Z,77.33
2018-07-24T03:45:53.845Z,77.16
2018-07-24T03:48:22.619Z,76.61
2018-07-24T03:50:51.338Z,76.68
2018-07-24T03:53:20.134Z,77.71
2018-07-24T03:55:48.886Z,78.13
2018-07-24T03:58:17.872Z,78.86
2018-07-24T04:00:46.669Z,79.00
2018-07-24T04:03:15.437Z,79.32
2018-07-24T04:05:44.146Z,79.88
2018-07-24T04:08:12.858Z,79.72
2018-07-24T04:10:41.598Z,79.59
2018-07-24T04:13:10.412Z,79.64
2018-07-24T04:15:39.293Z,79.68
2018-07-24T04:18:08.044Z,80.73
2018-07-24T04:20:36.830Z,80.22
2018-07-24T04:23:05.561Z,81.42
2018-07-24T04:25:34.372Z,81.56
2018-07-24T04:28:03.101Z,80.92
2018-07-24T04:30:31.945Z,80.91
2018-07-24T04:33:00.631Z,80.68
2018-07-24T04:35:29.361Z,80.06
2018-07-24T04:37:58.133Z,79.48
2018-07-24T04:40:26.949Z,79.40
2018-07-24T04:42:55.707Z,79.28
2018-07-24T04:45:24.413Z,79.19
2018-07-24T04:47:53.152Z,78.61
2018-07-24T04:50:21.872Z,78.33
2018-07-24T04:52:50.646Z,78.06
2018-07-24T04:55:19.369Z,77.62
2018-07-24T04:57:48.120Z,77.45
2018-07-24T05:00:16.908Z,77.19
2018-07-24T05:02:45.595Z,77.26
2018-07-24T05:05:14.281Z,77.09
2018-07-24T05:07:43.002Z,76.98
2018-07-24T05:10:11.743Z,76.92
2018-07-24T05:12:40.434Z,76.49
2018-07-24T05:15:09.271Z,76.04
2018-07-24T05:17:37.997Z,75.87
2018-07-24T05:20:06.734Z,75.47
2018-07-24T05:22:35.505Z,74.78
2018-07-24T05:25:04.224Z,75.20
2018-07-24T05:27:33.145Z,75.09
2018-07-24T05:30:01.933Z,74.79
2018-07-24T05:32:30.649Z,74.68
2018-07-24T05:34:59.326Z,74.39
2018-07-24T05:37:28.089Z,73.63
2018-07-24T05:39:56.832Z,73.30
2018-07-24T05:42:25.568Z,72.92
2018-07-24T05:44:54.265Z,72.75
2018-07-24T05:47:23.116Z,72.97
2018-07-24T05:49:51.847Z,72.67
2018-07-24T05:52:20.616Z,71.95
2018-07-24T05:54:49.357Z,71.70
2018-07-24T05:57:18.020Z,71.54
2018-07-24T05:59:46.797Z,70.61
2018-07-24T06:02:15.538Z,70.24
2018-07-24T06:04:45.086Z,69.53
2018-07-24T06:07:13.898Z,69.11
2018-07-24T06:09:42.639Z,68.83
2018-07-24T06:12:11.732Z,68.49
2018-07-24T06:14:40.415Z,67.50
2018-07-24T06:17:09.161Z,67.68
2018-07-24T06:19:37.897Z,67.20
2018-07-24T06:22:06.733Z,67.30
2018-07-24T06:24:35.477Z,66.80
2018-07-24T06:27:04.196Z,66.48
2018-07-24T06:29:32.911Z,66.22
2018-07-24T06:32:01.729Z,65.95
2018-07-24T06:34:30.419Z,65.72
2018-07-24T06:37:00.021Z,65.74
2018-07-24T06:39:28.755Z,66.07
2018-07-24T06:41:57.488Z,65.69
2018-07-24T06:44:26.288Z,65.52
2018-07-24T06:46:55.009Z,65.16
2018-07-24T06:49:23.818Z,65.28
2018-07-24T06:51:52.685Z,65.02
2018-07-24T06:54:21.385Z,64.51
2018-07-24T06:56:50.115Z,64.29
2018-07-24T06:59:18.847Z,63.39
2018-07-24T07:01:47.592Z,62.13
2018-07-24T07:04:16.379Z,60.91
2018-07-24T07:06:45.110Z,58.62
2018-07-24T07:09:13.856Z,57.20
2018-07-24T07:11:42.643Z,57.08
2018-07-24T07:14:11.490Z,56.74
2018-07-24T07:16:40.292Z,56.79
2018-07-24T07:19:09.024Z,56.60
2018-07-24T07:21:37.763Z,56.58
2018-07-24T07:24:06.462Z,57.32
2018-07-24T07:26:35.189Z,56.79
2018-07-24T07:29:03.997Z,56.56
2018-07-24T07:31:32.608Z,56.41
2018-07-24T07:34:01.324Z,55.34
2018-07-24T07:36:30.180Z,54.90
2018-07-24T07:38:58.970Z,55.66
2018-07-24T07:41:27.666Z,55.82
2018-07-24T07:43:56.508Z,56.40
2018-07-24T07:46:25.200Z,55.98
2018-07-24T07:48:53.863Z,55.69
2018-07-24T07:51:22.627Z,54.94
2018-07-24T07:53:51.493Z,55.00
2018-07-24T07:56:20.226Z,54.59
2018-07-24T07:58:49.175Z,54.53
2018-07-24T08:01:17.822Z,53.39
2018-07-24T08:03:46.879Z,52.58
2018-07-24T08:06:15.772Z,52.02
2018-07-24T08:08:44.557Z,51.00
2018-07-24T08:11:13.325Z,51.34
2018-07-24T08:13:42.077Z,51.83
2018-07-24T08:16:10.802Z,50.51
2018-07-24T08:18:39.713Z,50.33
2018-07-24T08:21:08.428Z,50.59
2018-07-24T08:23:37.185Z,50.41
2018-07-24T08:26:06.176Z,50.42
2018-07-24T08:28:34.922Z,49.02
2018-07-24T08:31:03.717Z,47.48
2018-07-24T08:33:32.570Z,47.10
2018-07-24T08:36:01.248Z,47.47
2018-07-24T08:38:30.282Z,46.20
2018-07-24T08:40:59.313Z,45.90
2018-07-24T08:43:28.105Z,44.07
2018-07-24T08:45:57.158Z,43.11
2018-07-24T08:48:26.435Z,43.72
2018-07-24T08:50:55.253Z,44.28
2018-07-24T08:53:24.290Z,43.53
2018-07-24T08:55:52.961Z,44.66
2018-07-24T08:58:21.954Z,43.95
2018-07-24T09:00:50.928Z,43.53
2018-07-24T09:03:19.717Z,42.60
2018-07-24T09:05:49.066Z,42.12
2018-07-24T09:08:18.204Z,42.04
2018-07-24T09:10:46.977Z,41.45
2018-07-24T09:13:17.474Z,40.52
2018-07-24T09:15:46.477Z,42.50
2018-07-24T09:18:15.304Z,43.19
2018-07-24T09:20:44.083Z,44.10
2018-07-24T09:23:12.880Z,43.95
2018-07-24T09:25:41.699Z,44.32
2018-07-24T09:28:10.411Z,44.42
2018-07-24T09:30:39.133Z,43.87
2018-07-24T09:33:07.814Z,43.90
2018-07-24T09:35:36.525Z,43.89
2018-07-24T09:38:05.435Z,44.82
2018-07-24T09:40:34.211Z,43.98
2018-07-24T09:43:02.923Z,43.59
2018-07-24T09:45:33.126Z,43.35
2018-07-24T09:48:02.021Z,43.91
2018-07-24T09:50:30.874Z,42.76
2018-07-24T09:52:59.589Z,41.20
2018-07-24T09:55:28.467Z,42.69
2018-07-24T09:57:57.133Z,41.65
2018-07-24T10:00:31.258Z,41.47
2018-07-24T10:03:00.038Z,41.60
2018-07-24T10:05:29.113Z,41.08
2018-07-24T10:07:57.952Z,41.11
2018-07-24T10:10:26.773Z,41.28
2018-07-24T10:12:58.179Z,40.18
2018-07-24T10:15:26.776Z,40.28
2018-07-24T10:17:55.509Z,40.02
2018-07-24T10:20:24.253Z,40.52
2018-07-24T10:22:53.018Z,40.46
2018-07-24T10:25:21.793Z,39.38
2018-07-24T10:27:50.758Z,39.03
2018-07-24T10:30:19.491Z,38.57
2018-07-24T10:32:48.215Z,38.51
2018-07-24T10:35:16.979Z,38.45
2018-07-24T10:37:45.741Z,37.71
2018-07-24T10:40:14.497Z,37.45
2018-07-24T10:42:43.225Z,36.93
2018-07-24T10:45:12.094Z,37.16
2018-07-24T10:47:40.879Z,37.19
2018-07-24T10:50:09.634Z,37.25
2018-07-24T10:52:38.437Z,38.25
2018-07-24T10:55:07.311Z,37.20
2018-07-24T10:57:36.050Z,37.71
2018-07-24T11:00:05.276Z,35.97
2018-07-24T11:02:34.185Z,36.36
2018-07-24T11:05:02.932Z,36.21
2018-07-24T11:07:31.698Z,37.09
2018-07-24T11:10:00.507Z,36.90
2018-07-24T11:12:29.392Z,36.64
2018-07-24T11:14:58.244Z,36.65
2018-07-24T11:17:27.757Z,37.32
2018-07-24T11:19:56.807Z,37.42
2018-07-24T11:22:25.651Z,37.33
2018-07-24T11:24:54.344Z,36.98
2018-07-24T11:27:23.131Z,36.82
2018-07-24T11:29:51.813Z,37.14
2018-07-24T11:32:20.544Z,37.75
2018-07-24T11:34:49.226Z,38.05
2018-07-24T11:37:17.963Z,37.51
2018-07-24T11:39:46.656Z,38.43
2018-07-24T11:42:15.421Z,38.18
2018-07-24T11:44:44.107Z,38.16
2018-07-24T11:47:12.794Z,38.23
2018-07-24T11:49:41.518Z,38.05
2018-07-24T11:52:10.269Z,37.65
2018-07-24T11:54:39.052Z,38.55
2018-07-24T11:57:07.815Z,37.92
2018-07-24T11:59:36.620Z,39.04
2018-07-24T12:02:05.615Z,38.51
2018-07-24T12:04:34.484Z,38.87
2018-07-24T12:07:03.296Z,39.15
2018-07-24T12:09:32.008Z,38.94
2018-07-24T12:12:00.687Z,38.32
2018-07-24T12:14:29.461Z,38.76
2018-07-24T12:16:58.130Z,39.04
2018-07-24T12:19:26.847Z,38.39
2018-07-24T12:21:55.662Z,39.22
2018-07-24T12:24:24.451Z,38.79
2018-07-24T12:26:53.263Z,39.11
2018-07-24T12:29:22.005Z,38.71
2018-07-24T12:31:50.808Z,38.54
2018-07-24T12:34:19.622Z,38.64
2018-07-24T12:36:48.440Z,38.61
2018-07-24T12:39:17.208Z,38.88
2018-07-24T12:41:45.960Z,38.58
2018-07-24T12:44:14.683Z,38.01
2018-07-24T12:46:43.341Z,38.67
2018-07-24T12:49:12.153Z,38.51
2018-07-24T12:51:41.067Z,37.67
2018-07-24T12:54:09.889Z,37.94
2018-07-24T12:56:38.603Z,37.90
2018-07-24T12:59:07.261Z,38.82
2018-07-24T13:01:36.137Z,38.96
2018-07-24T13:04:05.012Z,39.05
2018-07-24T13:06:33.706Z,38.28
2018-07-24T13:09:02.464Z,38.81
2018-07-24T13:11:31.189Z,39.34
2018-07-24T13:14:00.705Z,39.08
2018-07-24T13:16:29.513Z,38.42
2018-07-24T13:18:58.263Z,39.27
2018-07-24T13:21:27.022Z,39.63
2018-07-24T13:23:55.724Z,40.19
2018-07-24T13:26:24.556Z,39.70
2018-07-24T13:28:53.322Z,38.45
2018-07-24T13:31:22.064Z,38.34
2018-07-24T13:33:50.916Z,38.45
2018-07-24T13:36:19.608Z,37.62
2018-07-24T13:38:48.468Z,37.57
2018-07-24T13:41:18.457Z,37.43
2018-07-24T13:43:47.261Z,36.83
2018-07-24T13:46:16.046Z,37.44
2018-07-24T13:48:44.777Z,38.79
2018-07-24T13:51:13.666Z,37.70
2018-07-24T13:53:42.511Z,38.15
2018-07-24T13:56:11.434Z,38.88
2018-07-24T13:58:40.159Z,39.40
2018-07-24T14:01:08.871Z,39.58
2018-07-24T14:03:37.614Z,40.02
2018-07-24T14:06:06.422Z,40.28
2018-07-24T14:08:35.133Z,40.55
2018-07-24T14:11:03.817Z,40.59
2018-07-24T14:13:32.519Z,40.70
2018-07-24T14:16:01.208Z,40.15
2018-07-24T14:18:30.089Z,40.97
2018-07-24T14:20:58.897Z,40.92
2018-07-24T14:23:28.042Z,41.56
2018-07-24T14:25:56.855Z,41.73
2018-07-24T14:28:25.656Z,41.00
2018-07-24T14:30:54.447Z,41.79
2018-07-24T14:33:23.235Z,41.55
2018-07-24T14:35:52.015Z,41.13
2018-07-24T14:38:20.795Z,42.10
2018-07-24T14:40:50.237Z,41.37
2018-07-24T14:43:19.108Z,41.44
2018-07-24T14:45:47.945Z,41.66
2018-07-24T14:48:16.958Z,41.50
2018-07-24T14:50:45.780Z,41.12
2018-07-24T14:53:14.678Z,41.63
2018-07-24T14:55:43.374Z,41.18
2018-07-24T14:58:12.161Z,41.41
2018-07-24T15:00:40.957Z,41.73
2018-07-24T15:03:10.091Z,41.76
2018-07-24T15:05:39.056Z,41.20
2018-07-24T15:08:07.948Z,40.81
2018-07-24T15:10:36.887Z,40.28
2018-07-24T15:13:05.757Z,40.40
2018-07-24T15:15:34.569Z,41.42
2018-07-24T15:18:03.314Z,41.04
2018-07-24T15:20:32.036Z,41.18
2018-07-24T15:23:01.080Z,41.43
2018-07-24T15:25:29.749Z,40.77
2018-07-24T15:27:58.832Z,40.76
2018-07-24T15:30:28.217Z,40.92
2018-07-24T15:32:56.984Z,41.28
2018-07-24T15:35:25.797Z,41.34
2018-07-24T15:37:54.767Z,41.80
2018-07-24T15:40:23.890Z,43.03
2018-07-24T15:42:52.752Z,43.14
2018-07-24T15:45:21.508Z,43.30
2018-07-24T15:47:50.224Z,43.18
2018-07-24T15:50:19.022Z,43.30
2018-07-24T15:52:47.925Z,43.24
2018-07-24T15:55:16.780Z,43.00
2018-07-24T15:57:45.649Z,43.08
2018-07-24T16:00:14.401Z,42.81
2018-07-24T16:02:43.182Z,43.52
2018-07-24T16:05:12.025Z,42.52
2018-07-24T16:07:40.864Z,42.95
2018-07-24T16:10:10.152Z,42.76
2018-07-24T16:12:38.906Z,42.75
2018-07-24T16:15:07.643Z,42.21
2018-07-24T16:17:36.400Z,42.25
2018-07-24T16:20:05.308Z,42.09
2018-07-24T16:22:34.014Z,41.92
2018-07-24T16:25:02.962Z,42.33
2018-07-24T16:27:31.824Z,42.28
2018-07-24T16:30:01.286Z,42.56
2018-07-24T16:32:30.053Z,42.94
2018-07-24T16:34:58.765Z,42.78
2018-07-24T16:37:27.432Z,42.68
2018-07-24T16:39:56.185Z,42.44
2018-07-24T16:42:25.167Z,42.08
2018-07-24T16:44:53.949Z,42.87
2018-07-24T16:47:22.732Z,44.21
2018-07-24T16:49:51.463Z,43.68
2018-07-24T16:52:20.284Z,44.79
2018-07-24T16:54:49.271Z,43.48
2018-07-24T16:57:18.079Z,43.66
2018-07-24T16:59:46.922Z,43.50
2018-07-24T17:02:15.621Z,42.76
2018-07-24T17:04:44.348Z,43.17
2018-07-24T17:07:13.085Z,41.89
2018-07-24T17:09:41.831Z,42.46
2018-07-24T17:12:10.761Z,42.59
2018-07-24T17:14:39.505Z,43.92
2018-07-24T17:17:08.267Z,44.17
2018-07-24T17:19:37.051Z,44.40
2018-07-24T17:22:05.857Z,44.47
2018-07-24T17:24:34.606Z,44.62
2018-07-24T17:27:03.290Z,44.61
2018-07-24T17:29:32.033Z,43.49
2018-07-24T17:32:00.926Z,43.71
2018-07-24T17:34:29.691Z,43.36
2018-07-24T17:36:58.768Z,43.39
2018-07-24T17:39:27.559Z,43.30
2018-07-24T17:41:56.325Z,43.57
2018-07-24T17:44:25.125Z,44.46
2018-07-24T17:46:53.917Z,43.61
2018-07-24T17:49:22.722Z,44.25
2018-07-24T17:51:51.375Z,44.27
2018-07-24T17:54:20.127Z,44.24
2018-07-24T17:56:48.848Z,43.59
2018-07-24T17:59:17.587Z,44.05
2018-07-24T18:01:46.374Z,44.10
2018-07-24T18:04:15.133Z,43.96
2018-07-24T18:06:43.838Z,43.55
2018-07-24T18:09:13.497Z,42.98
2018-07-24T18:11:42.294Z,43.37
2018-07-24T18:14:11.110Z,43.61
2018-07-24T18:16:40.056Z,43.18
2018-07-24T18:19:08.943Z,42.61
2018-07-24T18:21:37.811Z,42.87
2018-07-24T18:24:06.673Z,42.60
2018-07-24T18:26:35.380Z,43.47
2018-07-24T18:29:04.281Z,43.03
2018-07-24T18:31:33.061Z,43.53
2018-07-24T18:34:01.961Z,42.69
2018-07-24T18:36:30.788Z,42.66
2018-07-24T18:38:59.485Z,42.62
2018-07-24T18:41:28.222Z,42.38
2018-07-24T18:43:56.916Z,42.59
2018-07-24T18:46:25.731Z,43.12
2018-07-24T18:48:54.450Z,43.98
2018-07-24T18:51:23.206Z,43.95
2018-07-24T18:53:51.888Z,44.64
2018-07-24T18:56:20.618Z,44.90
2018-07-24T18:58:49.487Z,45.37
2018-07-24T19:01:20.281Z,45.05
2018-07-24T19:03:49.016Z,46.16
2018-07-24T19:06:17.946Z,46.17
2018-07-24T19:08:46.810Z,46.00
2018-07-24T19:11:16.219Z,46.02
2018-07-24T19:13:44.840Z,46.11
2018-07-24T19:16:13.645Z,46.25
2018-07-24T19:18:42.524Z,46.30
2018-07-24T19:21:11.246Z,47.68
2018-07-24T19:23:40.192Z,47.01
2018-07-24T19:26:08.962Z,47.14
2018-07-24T19:28:37.764Z,47.26
2018-07-24T19:31:06.675Z,47.68
2018-07-24T19:33:35.340Z,47.71
2018-07-24T19:36:04.104Z,48.31
2018-07-24T19:38:32.846Z,48.21
2018-07-24T19:41:01.642Z,48.49
2018-07-24T19:43:30.636Z,48.85
2018-07-24T19:45:59.348Z,49.03
2018-07-24T19:48:28.185Z,49.63
2018-07-24T19:50:56.889Z,49.74
2018-07-24T19:53:25.675Z,50.00
2018-07-24T19:55:54.405Z,49.67
2018-07-24T19:58:23.128Z,49.74
2018-07-24T20:00:51.859Z,49.65
2018-07-24T20:03:20.621Z,49.96
2018-07-24T20:05:49.325Z,50.24
2018-07-24T20:08:18.227Z,50.46
2018-07-24T20:10:46.956Z,50.55
2018-07-24T20:13:15.722Z,51.05
2018-07-24T20:15:44.440Z,51.80
2018-07-24T20:18:13.158Z,52.22
2018-07-24T20:20:41.919Z,52.07
2018-07-24T20:23:11.118Z,52.21
2018-07-24T20:25:39.896Z,53.05
2018-07-24T20:28:08.608Z,53.02
2018-07-24T20:30:37.333Z,53.61
2018-07-24T20:33:06.108Z,53.73
2018-07-24T20:35:35.111Z,53.57
2018-07-24T20:38:03.936Z,54.44
2018-07-24T20:40:32.735Z,54.47
2018-07-24T20:43:01.600Z,55.21
2018-07-24T20:45:31.155Z,55.63
2018-07-24T20:48:00.038Z,55.38
2018-07-24T20:50:28.800Z,55.49
2018-07-24T20:52:57.568Z,55.86
2018-07-24T20:55:26.270Z,55.70
2018-07-24T20:57:55.871Z,56.21
2018-07-24T21:00:24.676Z,56.30
2018-07-24T21:02:53.399Z,56.82
2018-07-24T21:05:22.076Z,57.24
2018-07-24T21:07:50.814Z,57.21
2018-07-24T21:10:20.051Z,57.00
2018-07-24T21:12:49.706Z,57.18
2018-07-24T21:15:19.076Z,57.91
2018-07-24T21:17:47.927Z,57.83
2018-07-24T21:20:16.763Z,58.24
2018-07-24T21:22:45.539Z,57.90
2018-07-24T21:25:14.447Z,58.46
2018-07-24T21:27:43.201Z,58.65
2018-07-24T21:30:12.953Z,58.35
2018-07-24T21:32:41.718Z,58.41
2018-07-24T21:35:10.425Z,58.59
2018-07-24T21:37:39.711Z,59.26
2018-07-24T21:40:08.389Z,60.20
2018-07-24T21:42:37.325Z,60.06
2018-07-24T21:45:05.937Z,60.89
2018-07-24T21:47:34.768Z,60.53
2018-07-24T21:50:03.557Z,60.59
2018-07-24T21:52:32.395Z,60.04
2018-07-24T21:55:01.341Z,60.39
2018-07-24T21:57:30.076Z,60.23
2018-07-24T21:59:58.790Z,60.61
2018-07-24T22:02:27.573Z,60.77
2018-07-24T22:04:56.422Z,60.68
2018-07-24T22:07:25.467Z,60.66
2018-07-24T22:09:54.137Z,61.04
2018-07-24T22:12:23.394Z,61.36
2018-07-24T22:14:52.132Z,61.69
2018-07-24T22:17:20.832Z,62.06
2018-07-24T22:19:49.624Z,63.19
2018-07-24T22:22:18.878Z,63.59
2018-07-24T22:24:47.716Z,62.40
2018-07-24T22:27:16.579Z,62.29
2018-07-24T22:29:45.324Z,63.23
2018-07-24T22:32:14.214Z,62.37
2018-07-24T22:34:42.947Z,62.74
2018-07-24T22:37:11.808Z,62.91
2018-07-24T22:39:40.514Z,63.27
2018-07-24T22:42:09.232Z,62.39
2018-07-24T22:44:37.944Z,62.96
2018-07-24T22:47:06.678Z,62.71
2018-07-24T22:49:35.425Z,62.41
2018-07-24T22:52:04.415Z,63.04
2018-07-24T22:54:33.120Z,62.73
2018-07-24T22:57:01.814Z,63.64
2018-07-24T22:59:30.573Z,63.40
2018-07-24T23:01:59.311Z,63.02
2018-07-24T23:04:28.016Z,63.48
2018-07-24T23:06:56.804Z,63.32
2018-07-24T23:09:25.572Z,62.90
2018-07-24T23:11:54.315Z,63.60
2018-07-24T23:14:23.101Z,63.93
2018-07-24T23:16:51.921Z,63.56
2018-07-24T23:19:20.641Z,64.03
2018-07-24T23:21:49.681Z,64.22
2018-07-24T23:24:18.423Z,64.09
2018-07-24T23:26:47.105Z,65.22
2018-07-24T23:29:16.001Z,65.59
2018-07-24T23:31:44.736Z,66.09
2018-07-24T23:34:13.466Z,66.20
2018-07-24T23:36:42.228Z,65.74
2018-07-24T23:39:11.739Z,65.71
2018-07-24T23:41:40.536Z,65.09
2018-07-24T23:44:09.296Z,65.31
2018-07-24T23:46:38.369Z,65.88
2018-07-24T23:49:07.250Z,66.71
2018-07-24T23:51:36.022Z,68.28
2018-07-24T23:54:04.788Z,68.59
2018-07-24T23:56:33.536Z,68.95
2018-07-24T23:59:02.245Z,68.35
